Time;durP1;ratioP1;P1;durP2;ratioP2;P2;SDS_P1;SDS_P2;PMS_P1;PMS_P2;Temp;Humidity;BMP_temperature;BMP_pressure;BME280_temperature;BME280_humidity;BME280_pressure;Samples;Min_cycle;Max_cycle;Signal;HPM_P1;HPM_P2
2022/03/09 00:00:50;;;;;;;13.15;8.52;;;6.30;66.80;;;;;;6185705;23;19997;-85
2022/03/09 00:03:25;;;;;;;13.73;8.40;;;6.30;67.10;;;;;;6184071;23;20324;-85
2022/03/09 00:05:50;;;;;;;13.60;7.80;;;6.20;67.60;;;;;;6184238;23;20001;-84
2022/03/09 00:08:23;;;;;;;12.15;7.90;;;6.20;67.60;;;;;;6184060;23;20000;-85
2022/03/09 00:10:51;;;;;;;12.43;8.20;;;6.20;67.70;;;;;;6185349;23;20486;-85
2022/03/09 00:13:22;;;;;;;13.60;8.38;;;6.20;68.00;;;;;;6183782;23;20008;-86
2022/03/09 00:15:48;;;;;;;;;;;6.20;68.10;;;;;;6160540;23;20084;-85
2022/03/09 00:18:19;;;;;;;12.77;7.95;;;6.10;67.90;;;;;;6184257;23;19939;-85
2022/03/09 00:20:45;;;;;;;13.73;8.07;;;6.10;67.60;;;;;;6159405;23;20024;-84
2022/03/09 00:23:13;;;;;;;12.30;7.85;;;6.10;68.00;;;;;;6183694;23;20028;-85
2022/03/09 00:25:42;;;;;;;12.82;7.70;;;6.10;68.70;;;;;;6183614;23;20075;-85
2022/03/09 00:28:07;;;;;;;13.00;8.13;;;6.00;69.10;;;;;;6159201;23;20324;-85
2022/03/09 00:30:36;;;;;;;14.18;8.50;;;6.00;69.20;;;;;;6185361;23;19997;-85
2022/03/09 00:33:01;;;;;;;12.10;8.07;;;6.00;70.20;;;;;;6159269;23;20335;-84
2022/03/09 00:35:30;;;;;;;13.70;7.95;;;6.00;69.60;;;;;;6183649;23;20087;-85
2022/03/09 00:37:55;;;;;;;13.93;8.10;;;5.90;69.70;;;;;;6183896;23;20392;-85
2022/03/09 00:40:24;;;;;;;12.93;8.20;;;6.00;69.80;;;;;;6158799;23;20031;-85
2022/03/09 00:42:49;;;;;;;13.50;8.13;;;5.90;69.60;;;;;;6134298;23;20009;-85
2022/03/09 00:45:16;;;;;;;13.32;8.32;;;5.90;69.90;;;;;;6183629;23;20409;-84
2022/03/09 00:47:42;;;;;;;14.27;7.97;;;5.80;69.90;;;;;;6183514;23;19997;-85
2022/03/09 00:50:08;;;;;;;13.35;8.27;;;5.80;69.50;;;;;;6186089;23;20012;-85
2022/03/09 00:52:37;;;;;;;16.67;8.55;;;5.70;70.00;;;;;;6185349;23;20005;-84
2022/03/09 00:55:08;;;;;;;11.15;7.63;;;5.70;70.30;;;;;;6185598;23;20008;-84
2022/03/09 00:57:34;;;;;;;14.27;8.10;;;5.70;69.90;;;;;;6185037;23;20005;-85
2022/03/09 01:00:03;;;;;;;14.90;8.10;;;5.60;69.50;;;;;;6185200;23;20448;-84
2022/03/09 01:02:31;;;;;;;15.15;8.13;;;5.60;69.90;;;;;;6160282;23;20005;-85
2022/03/09 01:04:57;;;;;;;13.48;8.25;;;5.60;69.60;;;;;;6160803;23;20024;-85
2022/03/09 01:07:23;;;;;;;12.57;7.85;;;5.50;69.80;;;;;;6185596;23;20005;-85
2022/03/09 01:09:48;;;;;;;13.70;7.55;;;5.50;69.30;;;;;;6185402;23;20309;-85
2022/03/09 01:12:22;;;;;;;13.13;7.65;;;5.50;69.20;;;;;;6185487;23;20319;-86
2022/03/09 01:14:47;;;;;;;13.77;7.97;;;5.50;69.70;;;;;;6185224;23;20083;-85
2022/03/09 01:17:21;;;;;;;12.63;8.23;;;5.40;69.70;;;;;;6185509;23;20450;-84
2022/03/09 01:19:54;;;;;;;13.15;8.20;;;5.40;70.10;;;;;;6184836;23;20005;-85
2022/03/09 01:22:22;;;;;;;13.57;8.00;;;5.40;70.50;;;;;;6185003;23;20009;-85
2022/03/09 01:24:48;;;;;;;14.18;8.13;;;5.40;70.90;;;;;;6185306;23;20606;-84
2022/03/09 01:27:16;;;;;;;12.57;7.90;;;5.30;70.80;;;;;;6185464;23;20029;-84
2022/03/09 01:29:47;;;;;;;14.45;7.70;;;5.30;71.20;;;;;;6185090;23;20408;-84
2022/03/09 01:32:13;;;;;;;13.90;8.20;;;5.30;71.50;;;;;;6185430;23;20016;-84
2022/03/09 01:34:49;;;;;;;12.88;7.93;;;5.20;71.80;;;;;;6185108;23;20001;-84
2022/03/09 01:37:17;;;;;;;17.15;8.23;;;5.20;72.00;;;;;;6161702;23;20055;-84
2022/03/09 01:39:43;;;;;;;12.60;7.90;;;5.20;72.30;;;;;;6184942;23;19997;-85
2022/03/09 01:42:09;;;;;;;13.35;8.85;;;5.10;72.40;;;;;;6186887;23;20008;-84
2022/03/09 01:44:35;;;;;;;14.65;8.05;;;5.10;72.00;;;;;;6184933;23;20005;-84
2022/03/09 01:47:01;;;;;;;11.52;7.47;;;5.10;72.20;;;;;;6184928;23;20008;-85
2022/03/09 01:49:29;;;;;;;12.10;8.30;;;5.00;72.00;;;;;;6185123;23;20008;-85
2022/03/09 01:52:01;;;;;;;14.55;8.93;;;5.00;72.50;;;;;;6184925;23;20037;-84
2022/03/09 01:54:31;;;;;;;15.25;8.35;;;5.00;72.70;;;;;;6185205;23;19997;-84
2022/03/09 01:56:59;;;;;;;13.50;7.90;;;5.00;73.00;;;;;;6185349;23;19997;-84
2022/03/09 01:59:25;;;;;;;17.17;8.13;;;4.90;73.20;;;;;;6186570;23;20076;-84
2022/03/09 02:01:51;;;;;;;12.48;7.88;;;4.80;73.40;;;;;;6184685;23;20416;-85
2022/03/09 02:04:18;;;;;;;15.13;8.13;;;4.80;72.70;;;;;;6185206;23;20005;-84
2022/03/09 02:06:45;;;;;;;16.75;8.85;;;4.80;73.00;;;;;;6184688;23;20028;-84
2022/03/09 02:11:56;;;;;;;15.25;8.65;;;4.80;73.60;;;;;;6186209;23;20097;-84
2022/03/09 02:14:31;;;;;;;12.57;7.55;;;4.70;73.80;;;;;;6184890;23;20056;-84
2022/03/09 02:17:02;;;;;;;16.50;8.80;;;4.60;74.00;;;;;;6184868;23;20005;-84
2022/03/09 02:19:28;;;;;;;14.77;8.40;;;4.60;74.30;;;;;;6184736;23;19997;-84
2022/03/09 02:22:20;;;;;;;12.07;7.95;;;4.60;74.40;;;;;;6184386;23;20009;-84
2022/03/09 02:24:50;;;;;;;14.00;8.43;;;4.60;74.90;;;;;;6116137;23;20005;-84
2022/03/09 02:27:17;;;;;;;15.55;8.55;;;4.60;74.50;;;;;;6184775;23;20008;-84
2022/03/09 02:29:43;;;;;;;15.85;8.10;;;4.50;74.70;;;;;;6184393;23;20001;-85
2022/03/09 02:32:16;;;;;;;12.30;8.02;;;4.50;75.00;;;;;;6184857;23;20037;-85
2022/03/09 02:34:48;;;;;;;17.35;8.73;;;4.40;75.20;;;;;;6184028;23;20420;-90
2022/03/09 02:37:19;;;;;;;14.20;8.45;;;4.40;75.40;;;;;;6188423;23;20088;-90
2022/03/09 02:39:48;;;;;;;14.60;7.78;;;4.40;75.20;;;;;;6187185;23;20009;-91
2022/03/09 02:42:49;;;;;;;;;;;;;;;;;;;;;
2022/03/09 02:45:15;;;;;;;;;;;4.30;75.30;;;;;;6188516;23;20080;-91
2022/03/09 02:47:51;;;;;;;14.38;8.68;;;4.30;76.50;;;;;;6188927;23;19908;-91
2022/03/09 02:50:19;;;;;;;14.52;8.13;;;4.20;76.60;;;;;;6162800;23;20071;-91
2022/03/09 02:52:50;;;;;;;16.58;8.90;;;4.20;76.90;;;;;;6188658;23;20059;-90
2022/03/09 02:55:19;;;;;;;23.90;9.65;;;4.20;76.80;;;;;;6187449;23;20028;-90
2022/03/09 02:57:45;;;;;;;14.73;8.32;;;4.10;77.30;;;;;;6187109;23;20323;-90
2022/03/09 03:00:19;;;;;;;14.93;8.50;;;4.10;77.30;;;;;;6190266;23;20008;-89
2022/03/09 03:02:47;;;;;;;14.25;8.50;;;4.10;77.30;;;;;;6188787;23;20005;-90
2022/03/09 03:05:18;;;;;;;15.35;8.55;;;4.10;77.80;;;;;;6189163;23;20005;-90
2022/03/09 03:07:57;;;;;;;;;;;4.00;78.30;;;;;;6190463;23;20427;-90
2022/03/09 03:10:28;;;;;;;13.55;8.00;;;4.00;78.80;;;;;;6188304;23;19952;-90
2022/03/09 03:12:54;;;;;;;14.98;7.97;;;4.00;78.60;;;;;;6163079;23;20095;-90
2022/03/09 03:15:25;;;;;;;15.43;8.07;;;3.90;78.60;;;;;;6188139;23;20001;-90
2022/03/09 03:17:53;;;;;;;14.35;8.90;;;3.90;78.80;;;;;;6187168;23;19997;-90
2022/03/09 03:20:25;;;;;;;15.73;8.75;;;3.90;78.90;;;;;;6187139;23;20573;-90
2022/03/09 03:22:55;;;;;;;14.25;8.63;;;3.80;79.10;;;;;;6163284;23;20017;-91
2022/03/09 03:25:24;;;;;;;14.88;8.38;;;3.80;79.40;;;;;;6188582;23;20000;-90
2022/03/09 03:27:49;;;;;;;14.82;8.35;;;3.80;80.20;;;;;;6187182;23;20005;-90
2022/03/09 03:30:27;;;;;;;20.08;8.85;;;3.80;80.30;;;;;;6187656;23;20087;-91
2022/03/09 03:32:52;;;;;;;14.63;8.80;;;3.80;80.80;;;;;;6164832;23;20013;-90
2022/03/09 03:35:27;;;;;;;16.67;8.27;;;3.70;81.10;;;;;;6187382;23;20032;-91
2022/03/09 03:37:53;;;;;;;15.70;8.43;;;3.70;81.30;;;;;;6187988;23;20028;-90
2022/03/09 03:40:19;;;;;;;14.85;8.50;;;3.70;81.60;;;;;;6163268;23;20005;-91
2022/03/09 03:42:57;;;;;;;16.05;8.20;;;3.70;81.60;;;;;;6188598;23;20042;-91
2022/03/09 03:45:33;;;;;;;13.00;8.10;;;3.60;81.90;;;;;;6189352;23;20060;-90
2022/03/09 03:48:42;;;;;;;14.65;7.93;;;3.60;81.90;;;;;;6188336;23;19997;-90
2022/03/09 03:51:11;;;;;;;13.73;8.55;;;3.60;81.60;;;;;;6188837;23;20005;-90
2022/03/09 03:53:39;;;;;;;13.18;7.68;;;3.50;81.70;;;;;;6187502;23;20424;-90
2022/03/09 03:56:20;;;;;;;;;;;;;;;;;;;;;
2022/03/09 03:58:49;;;;;;;14.30;9.38;;;3.50;82.60;;;;;;6187470;23;20069;-92
2022/03/09 04:01:24;;;;;;;18.27;8.25;;;3.50;82.90;;;;;;6187372;23;20001;-90
2022/03/09 04:03:52;;;;;;;15.20;8.57;;;3.40;82.90;;;;;;6186782;23;20013;-91
2022/03/09 04:06:23;;;;;;;13.90;8.98;;;3.40;83.20;;;;;;6186973;23;20001;-90
2022/03/09 04:08:56;;;;;;;13.85;8.20;;;3.40;83.30;;;;;;6187952;23;20028;-91
2022/03/09 04:11:27;;;;;;;18.27;8.20;;;3.40;83.20;;;;;;6196344;23;20082;-90
2022/03/09 04:16:59;;;;;;;17.23;9.10;;;3.40;83.90;;;;;;6193046;23;20084;-91
2022/03/09 04:19:51;;;;;;;12.55;8.27;;;3.30;84.40;;;;;;6187135;23;20008;-89
2022/03/09 04:22:17;;;;;;;15.38;8.55;;;3.30;84.40;;;;;;6188654;23;20072;-89
2022/03/09 04:24:42;;;;;;;13.75;8.38;;;3.30;84.90;;;;;;6187444;23;20067;-89
2022/03/09 04:27:11;;;;;;;14.15;8.25;;;3.20;85.00;;;;;;6187161;23;20025;-89
2022/03/09 04:29:39;;;;;;;14.65;8.10;;;3.30;85.20;;;;;;6191518;23;20424;-90
2022/03/09 04:32:13;;;;;;;14.57;8.63;;;3.20;85.40;;;;;;6192449;23;20005;-89
2022/03/09 04:35:28;;;;;;;14.52;7.95;;;3.20;85.50;;;;;;6191764;23;20001;-88
2022/03/09 04:38:01;;;;;;;14.80;8.30;;;3.20;85.80;;;;;;6206641;23;20347;-94
2022/03/09 04:40:32;;;;;;;14.75;8.63;;;3.20;86.00;;;;;;6186302;23;20001;-89
2022/03/09 04:43:05;;;;;;;15.20;8.90;;;3.20;86.10;;;;;;6186328;23;20013;-89
2022/03/09 04:45:31;;;;;;;14.55;8.07;;;3.20;86.80;;;;;;6163123;23;20017;-89
2022/03/09 04:48:16;;;;;;;14.38;8.45;;;3.10;86.70;;;;;;6186590;23;20009;-89
2022/03/09 04:53:42;;;;;;;14.38;8.13;;;3.10;86.80;;;;;;6181237;23;20048;-89
2022/03/09 04:56:17;;;;;;;;;;;;;;;;;;;;;
2022/03/09 04:58:46;;;;;;;15.13;8.50;;;3.10;87.90;;;;;;6188718;23;20390;-89
2022/03/09 05:01:18;;;;;;;15.75;8.00;;;3.00;88.10;;;;;;6186742;23;20420;-89
2022/03/09 05:04:00;;;;;;;15.00;8.70;;;3.00;88.30;;;;;;6186673;23;20078;-89
2022/03/09 05:06:43;;;;;;;12.80;8.15;;;3.00;88.60;;;;;;6164686;23;20005;-89
2022/03/09 05:09:36;;;;;;;15.25;8.48;;;3.00;88.80;;;;;;6188370;23;20059;-89
2022/03/09 05:12:03;;;;;;;;;;;3.00;88.80;;;;;;6189794;23;20016;-89
2022/03/09 05:14:34;;;;;;;15.52;8.15;;;3.00;89.50;;;;;;6188338;23;19900;-88
2022/03/09 05:16:59;;;;;;;;;;;2.90;89.40;;;;;;6193517;23;20032;-90
2022/03/09 05:19:33;;;;;;;15.38;8.00;;;2.90;90.00;;;;;;6191859;23;19900;-90
2022/03/09 05:22:01;;;;;;;16.98;8.98;;;2.90;90.10;;;;;;6162810;23;20055;-89
2022/03/09 05:24:40;;;;;;;16.70;8.90;;;2.80;90.10;;;;;;6187270;23;20001;-90
2022/03/09 05:27:17;;;;;;;13.60;8.30;;;2.90;90.20;;;;;;6163617;23;20001;-89
2022/03/09 05:29:53;;;;;;;16.02;7.57;;;2.80;90.20;;;;;;6186983;23;20001;-89
2022/03/09 05:32:30;;;;;;;13.98;8.70;;;2.80;90.10;;;;;;6187259;23;20017;-89
2022/03/09 05:35:05;;;;;;;15.63;8.00;;;2.80;90.00;;;;;;6140544;23;20467;-89
2022/03/09 05:38:00;;;;;;;12.52;7.88;;;2.80;90.00;;;;;;6189454;23;20360;-89
2022/03/09 05:40:31;;;;;;;15.73;8.52;;;2.80;90.30;;;;;;6185190;23;20001;-89
2022/03/09 05:42:59;;;;;;;13.63;7.97;;;2.70;90.40;;;;;;6167726;23;20033;-90
2022/03/09 05:45:32;;;;;;;16.85;8.98;;;2.70;90.50;;;;;;6192105;23;20035;-89
2022/03/09 05:48:01;;;;;;;13.93;8.50;;;2.70;90.70;;;;;;6192693;23;20028;-89
2022/03/09 05:50:30;;;;;;;14.13;8.60;;;2.70;91.00;;;;;;6190078;23;20479;-89
2022/03/09 05:56:36;;;;;;;14.93;8.80;;;2.60;91.10;;;;;;6191418;23;20009;-91
2022/03/09 05:59:02;;;;;;;16.00;9.75;;;2.60;91.40;;;;;;6167131;23;20501;-92
2022/03/09 06:01:33;;;;;;;14.20;8.27;;;2.60;91.30;;;;;;6188634;23;20048;-91
2022/03/09 06:04:17;;;;;;;16.48;8.07;;;2.60;91.40;;;;;;6188765;23;20028;-90
2022/03/09 06:07:11;;;;;;;13.88;7.60;;;2.50;91.20;;;;;;6164065;23;20013;-91
2022/03/09 06:10:25;;;;;;;14.02;8.10;;;2.60;91.30;;;;;;6153957;23;20420;-90
2022/03/09 06:12:59;;;;;;;15.93;8.00;;;2.60;91.20;;;;;;6188254;23;20012;-91
2022/03/09 06:15:27;;;;;;;17.60;7.68;;;2.50;91.30;;;;;;6188932;23;20006;-91
2022/03/09 06:17:55;;;;;;;16.50;8.35;;;2.50;91.70;;;;;;6188612;23;20032;-91
2022/03/09 06:20:25;;;;;;;15.63;8.73;;;2.50;91.90;;;;;;6159173;23;20028;-90
2022/03/09 06:22:51;;;;;;;14.45;8.05;;;2.50;92.10;;;;;;6188915;23;20432;-91
2022/03/09 06:25:20;;;;;;;18.17;9.20;;;2.50;92.10;;;;;;6188401;23;20007;-91
2022/03/09 06:27:54;;;;;;;15.18;8.15;;;2.50;92.30;;;;;;6189678;23;20032;-91
2022/03/09 06:30:50;;;;;;;14.95;8.45;;;2.50;92.40;;;;;;6188447;23;20108;-91
2022/03/09 06:33:16;;;;;;;13.93;7.22;;;2.50;92.50;;;;;;6171268;23;20005;-91
2022/03/09 06:35:47;;;;;;;16.92;8.35;;;2.50;92.40;;;;;;6191087;23;20054;-90
2022/03/09 06:38:31;;;;;;;15.27;8.57;;;2.50;92.50;;;;;;6188446;23;20039;-89
2022/03/09 06:41:09;;;;;;;18.00;7.55;;;2.50;92.70;;;;;;6163257;23;20250;-90
2022/03/09 06:43:37;;;;;;;15.45;8.70;;;2.50;92.80;;;;;;6188760;23;20016;-90
2022/03/09 06:46:22;;;;;;;12.25;8.15;;;2.50;92.70;;;;;;6163245;23;20033;-90
2022/03/09 06:49:19;;;;;;;15.18;8.25;;;2.40;92.80;;;;;;6165805;23;20006;-91
2022/03/09 06:52:08;;;;;;;15.98;8.02;;;2.50;92.90;;;;;;6189694;23;20012;-90
2022/03/09 06:58:11;;;;;;;17.15;9.55;;;2.50;93.00;;;;;;6191146;23;20028;-92
2022/03/09 07:00:40;;;;;;;15.13;8.25;;;2.50;93.00;;;;;;6189485;23;20012;-91
2022/03/09 07:03:16;;;;;;;14.38;8.85;;;2.50;93.10;;;;;;6189968;23;20048;-89
2022/03/09 07:05:48;;;;;;;15.05;8.43;;;2.50;93.10;;;;;;6166897;23;20096;-90
2022/03/09 07:08:21;;;;;;;14.57;8.73;;;2.50;93.20;;;;;;6165288;23;20041;-90
2022/03/09 07:10:50;;;;;;;17.25;8.68;;;2.50;93.40;;;;;;6165216;23;20009;-91
2022/03/09 07:13:16;;;;;;;14.70;8.70;;;2.50;93.60;;;;;;6188509;23;20001;-90
2022/03/09 07:16:09;;;;;;;15.05;9.07;;;2.60;93.80;;;;;;6190477;23;19997;-89
2022/03/09 07:18:41;;;;;;;18.17;8.52;;;2.60;93.90;;;;;;6196219;23;20012;-90
2022/03/09 07:21:13;;;;;;;25.92;9.48;;;2.60;93.80;;;;;;6198120;23;20016;-90
2022/03/09 07:23:39;;;;;;;13.73;8.20;;;2.60;93.60;;;;;;6196529;23;20009;-90
2022/03/09 07:26:05;;;;;;;13.25;7.68;;;2.70;93.40;;;;;;6187052;23;20012;-89
2022/03/09 07:29:19;;;;;;;;;;;;;;;;;;;;;
2022/03/09 07:32:14;;;;;;;11.65;7.07;;;2.70;93.00;;;;;;6187635;23;20028;-96
2022/03/09 07:38:19;;;;;;;14.20;7.30;;;2.80;92.60;;;;;;6186260;23;20446;-90
2022/03/09 07:41:03;;;;;;;14.52;8.27;;;2.90;92.40;;;;;;6140265;23;20019;-90
2022/03/09 07:44:06;;;;;;;15.68;7.03;;;2.90;92.20;;;;;;6137382;23;20017;-93
2022/03/09 07:47:09;;;;;;;12.75;6.60;;;2.90;92.10;;;;;;6120078;23;20443;-90
2022/03/09 07:49:52;;;;;;;13.43;7.78;;;3.00;92.30;;;;;;6162256;23;20005;-90
2022/03/09 07:52:30;;;;;;;13.18;7.72;;;3.10;92.00;;;;;;6161663;23;20009;-90
2022/03/09 07:55:30;;;;;;;14.35;6.65;;;3.20;91.80;;;;;;6161239;23;20335;-89
2022/03/09 07:58:02;;;;;;;12.65;6.93;;;3.30;91.60;;;;;;6174064;23;20001;-90
2022/03/09 08:03:38;;;;;;;13.68;7.45;;;3.40;91.20;;;;;;6175336;23;20013;-90
2022/03/09 08:06:16;;;;;;;13.02;7.03;;;3.50;91.00;;;;;;6189192;23;19997;-90
2022/03/09 08:08:42;;;;;;;11.48;6.97;;;3.50;90.80;;;;;;6187779;23;20480;-90
2022/03/09 08:11:28;;;;;;;;;;;;;;;;;;;;;
2022/03/09 08:14:15;;;;;;;12.35;6.65;;;3.70;90.70;;;;;;6189195;23;20076;-91
2022/03/09 08:17:12;;;;;;;11.73;7.20;;;3.80;90.20;;;;;;6186916;23;20012;-91
2022/03/09 08:26:07;;;;;;;11.95;7.20;;;4.00;89.20;;;;;;6190090;23;20033;-90
2022/03/09 08:28:36;;;;;;;15.60;7.13;;;4.10;88.70;;;;;;6167351;23;20005;-91
2022/03/09 08:31:26;;;;;;;16.40;6.47;;;4.20;88.10;;;;;;6192121;23;20027;-90
2022/03/09 08:33:55;;;;;;;12.50;6.47;;;4.30;88.00;;;;;;6189911;23;20009;-91
2022/03/09 08:37:00;;;;;;;10.25;5.97;;;4.40;87.50;;;;;;6188387;23;20008;-93
2022/03/09 08:39:46;;;;;;;;;;;;;;;;;;;;;
2022/03/09 08:42:16;;;;;;;11.55;6.45;;;4.60;88.00;;;;;;6187884;23;20053;-91
2022/03/09 08:47:52;;;;;;;10.65;7.13;;;4.70;86.40;;;;;;6188923;23;20032;-91
2022/03/09 08:50:40;;;;;;;14.93;6.93;;;4.80;84.90;;;;;;6189522;23;20083;-91
2022/03/09 08:53:15;;;;;;;10.68;6.50;;;4.90;85.20;;;;;;6186742;23;20005;-90
2022/03/09 08:55:46;;;;;;;12.10;7.13;;;5.00;85.10;;;;;;6190745;23;20001;-91
2022/03/09 08:58:15;;;;;;;12.43;7.53;;;5.10;84.20;;;;;;6192128;23;20007;-91
2022/03/09 09:00:44;;;;;;;10.68;6.72;;;5.20;83.30;;;;;;6193435;23;20012;-91
2022/03/09 09:03:16;;;;;;;10.02;6.65;;;5.30;83.60;;;;;;6191073;23;20009;-91
2022/03/09 09:06:00;;;;;;;12.80;6.80;;;5.40;83.80;;;;;;6186807;23;20106;-91
2022/03/09 09:08:29;;;;;;;11.63;6.60;;;5.50;83.30;;;;;;6166557;23;20012;-91
2022/03/09 09:10:59;;;;;;;14.25;6.75;;;5.60;81.00;;;;;;6189098;23;20055;-92
2022/03/09 09:13:39;;;;;;;12.77;7.00;;;5.70;79.20;;;;;;6190052;23;20009;-94
2022/03/09 09:16:20;;;;;;;14.43;6.95;;;5.90;79.90;;;;;;6167423;23;20088;-92
2022/03/09 09:22:47;;;;;;;12.68;7.43;;;6.10;79.40;;;;;;6177466;23;20021;-93
2022/03/09 09:25:32;;;;;;;11.52;7.45;;;6.30;80.20;;;;;;6157275;23;20009;-90
2022/03/09 09:30:58;;;;;;;14.48;7.28;;;6.50;80.40;;;;;;6190133;23;20005;-94
2022/03/09 09:33:58;;;;;;;16.25;6.55;;;6.70;78.90;;;;;;6192479;23;20012;-93
2022/03/09 09:36:42;;;;;;;11.48;7.15;;;6.80;77.30;;;;;;6190456;23;20001;-93
2022/03/09 09:42:21;;;;;;;16.15;7.65;;;7.10;77.40;;;;;;6166816;23;20016;-91
2022/03/09 09:45:13;;;;;;;13.43;6.75;;;7.20;76.40;;;;;;6186949;23;20067;-90
2022/03/09 09:47:42;;;;;;;14.32;7.07;;;7.40;76.80;;;;;;6187669;23;20025;-91
2022/03/09 09:50:13;;;;;;;12.23;7.00;;;7.60;77.60;;;;;;6162326;23;20005;-90
2022/03/09 09:52:40;;;;;;;11.65;6.90;;;7.70;78.10;;;;;;6187474;23;20118;-90
2022/03/09 09:55:12;;;;;;;12.02;7.78;;;7.80;77.00;;;;;;6187167;23;19997;-90
2022/03/09 09:57:40;;;;;;;14.57;7.53;;;7.90;73.70;;;;;;6187520;23;20005;-90
2022/03/09 10:00:09;;;;;;;11.35;6.40;;;8.10;74.60;;;;;;6187751;23;20001;-90
2022/03/09 10:02:48;;;;;;;12.90;7.07;;;8.20;74.40;;;;;;6187064;23;20005;-90
2022/03/09 10:05:16;;;;;;;21.42;7.70;;;8.30;72.80;;;;;;6187408;23;20008;-90
2022/03/09 10:08:04;;;;;;;12.52;7.03;;;8.50;72.20;;;;;;6187328;23;20001;-89
2022/03/09 10:10:33;;;;;;;23.30;9.30;;;8.60;70.20;;;;;;6187237;23;20443;-90
2022/03/09 10:13:18;;;;;;;12.40;7.55;;;8.70;71.00;;;;;;6187130;23;20058;-90
2022/03/09 10:15:45;;;;;;;16.52;7.18;;;8.90;70.00;;;;;;6187152;23;20027;-91
2022/03/09 10:18:17;;;;;;;14.65;7.47;;;9.00;68.30;;;;;;6187562;23;20011;-92
2022/03/09 10:20:44;;;;;;;20.98;10.07;;;9.20;68.30;;;;;;6186721;23;20001;-90
2022/03/09 10:23:11;;;;;;;12.90;8.15;;;9.40;68.00;;;;;;6186783;23;20016;-90
2022/03/09 10:25:40;;;;;;;15.35;8.00;;;9.50;66.20;;;;;;6214419;23;20005;-90
2022/03/09 10:28:10;;;;;;;11.98;7.40;;;9.60;65.00;;;;;;6197749;23;20004;-89
2022/03/09 10:30:51;;;;;;;11.57;7.30;;;9.70;64.60;;;;;;6193626;23;20084;-88
2022/03/09 10:33:19;;;;;;;12.40;7.28;;;9.90;63.70;;;;;;6189351;23;20315;-89
2022/03/09 10:35:49;;;;;;;14.30;8.32;;;10.00;64.40;;;;;;6187804;23;20013;-89
2022/03/09 10:38:14;;;;;;;14.77;8.90;;;10.20;63.20;;;;;;6187669;23;20005;-89
2022/03/09 10:40:43;;;;;;;11.35;7.40;;;10.40;60.80;;;;;;6186493;23;20450;-90
2022/03/09 10:43:16;;;;;;;13.52;7.88;;;10.50;60.20;;;;;;6187174;23;20063;-91
2022/03/09 10:46:18;;;;;;;14.15;8.18;;;10.60;61.40;;;;;;6187936;23;20005;-91
2022/03/09 10:48:53;;;;;;;14.45;8.88;;;10.70;62.00;;;;;;6188454;23;20005;-88
2022/03/09 10:51:44;;;;;;;14.70;8.38;;;10.80;62.10;;;;;;6187941;23;20088;-90
2022/03/09 10:54:16;;;;;;;10.57;7.13;;;10.90;59.80;;;;;;6187569;23;20466;-90
2022/03/09 10:56:44;;;;;;;14.73;7.88;;;11.00;60.80;;;;;;6188909;23;20004;-91
2022/03/09 10:59:24;;;;;;;11.98;7.93;;;11.20;60.30;;;;;;6163355;23;20005;-86
2022/03/09 11:02:10;;;;;;;14.68;8.23;;;11.40;61.00;;;;;;6186928;23;20005;-85
2022/03/09 11:04:37;;;;;;;15.13;9.43;;;11.50;60.50;;;;;;6161729;23;20101;-89
2022/03/09 11:07:09;;;;;;;14.43;8.13;;;11.60;59.70;;;;;;6162860;23;20044;-92
2022/03/09 11:12:09;;;;;;;17.23;9.00;;;11.90;58.00;;;;;;6181543;23;20084;-90
2022/03/09 11:14:35;;;;;;;15.98;9.48;;;12.10;57.70;;;;;;6155988;23;20022;-89
2022/03/09 11:17:00;;;;;;;16.85;9.77;;;12.20;57.60;;;;;;6117187;23;20017;-90
2022/03/09 11:19:27;;;;;;;20.35;10.55;;;12.30;56.10;;;;;;6136992;23;20414;-89
2022/03/09 11:21:53;;;;;;;17.17;9.00;;;12.50;57.40;;;;;;6135818;23;20001;-90
2022/03/09 11:24:20;;;;;;;13.27;8.57;;;12.60;56.60;;;;;;6136100;23;20319;-91
2022/03/09 11:26:53;;;;;;;17.10;10.13;;;12.70;56.60;;;;;;6166342;23;19998;-90
2022/03/09 11:29:28;;;;;;;15.80;10.00;;;12.80;56.80;;;;;;6160375;23;20067;-91
2022/03/09 11:31:54;;;;;;;17.92;9.90;;;12.90;56.80;;;;;;6171593;23;20001;-90
2022/03/09 11:34:38;;;;;;;15.57;9.30;;;13.00;57.00;;;;;;6163337;23;20005;-90
2022/03/09 11:37:07;;;;;;;16.50;8.93;;;13.10;55.90;;;;;;6157810;23;20017;-92
2022/03/09 11:39:34;;;;;;;14.48;10.27;;;13.30;55.60;;;;;;6157900;23;20001;-91
2022/03/09 11:42:21;;;;;;;16.83;9.85;;;13.40;56.20;;;;;;6132803;23;20040;-91
2022/03/09 11:44:55;;;;;;;20.27;9.77;;;13.50;54.10;;;;;;6158143;23;20037;-91
2022/03/09 11:47:21;;;;;;;19.73;10.70;;;13.60;53.80;;;;;;6157040;23;20029;-91
2022/03/09 11:49:49;;;;;;;17.27;10.32;;;13.70;53.70;;;;;;6132894;23;20005;-91
2022/03/09 11:52:19;;;;;;;16.08;9.90;;;13.80;54.30;;;;;;6156966;23;20013;-91
2022/03/09 11:54:46;;;;;;;17.90;10.48;;;13.80;52.60;;;;;;6156129;23;20005;-84
2022/03/09 11:57:13;;;;;;;17.85;10.80;;;14.00;54.20;;;;;;6156264;23;20005;-84
2022/03/09 11:59:39;;;;;;;19.45;11.02;;;14.00;54.40;;;;;;6130104;23;20440;-84
2022/03/09 12:02:13;;;;;;;19.27;11.20;;;14.20;53.30;;;;;;6105705;23;20040;-84
2022/03/09 12:04:53;;;;;;;16.45;10.95;;;14.20;51.60;;;;;;6130295;23;20460;-84
2022/03/09 12:07:28;;;;;;;16.45;10.98;;;14.30;52.30;;;;;;6154673;23;20009;-84
2022/03/09 12:10:10;;;;;;;20.15;12.57;;;14.40;51.30;;;;;;6154386;23;20093;-84
2022/03/09 12:12:38;;;;;;;17.05;11.82;;;14.50;51.10;;;;;;6154670;23;20337;-84
2022/03/09 12:15:13;;;;;;;18.92;11.95;;;14.70;51.10;;;;;;6154523;23;20310;-83
2022/03/09 12:17:47;;;;;;;21.98;13.27;;;14.80;49.30;;;;;;6158933;23;20029;-89
2022/03/09 12:20:30;;;;;;;16.92;11.50;;;14.80;48.30;;;;;;6175833;23;20021;-89
2022/03/09 12:22:56;;;;;;;18.02;11.63;;;14.90;50.40;;;;;;6132519;23;20006;-84
2022/03/09 12:25:41;;;;;;;16.58;11.65;;;15.00;49.70;;;;;;6154396;23;20008;-84
2022/03/09 12:28:25;;;;;;;18.05;12.55;;;15.00;48.00;;;;;;6155968;23;19998;-84
2022/03/09 12:31:00;;;;;;;19.88;12.95;;;15.10;51.50;;;;;;6154413;23;20001;-84
2022/03/09 12:33:31;;;;;;;19.13;11.73;;;15.20;47.70;;;;;;6154408;23;20006;-84
2022/03/09 12:36:24;;;;;;;18.75;12.50;;;15.20;48.30;;;;;;6154503;23;20006;-84
2022/03/09 12:38:56;;;;;;;21.70;13.27;;;15.30;48.50;;;;;;6149326;23;20005;-84
2022/03/09 12:41:31;;;;;;;22.45;13.30;;;15.30;45.80;;;;;;6154416;23;20414;-84
2022/03/09 12:43:59;;;;;;;20.73;13.32;;;15.30;45.10;;;;;;6180527;23;20025;-84
2022/03/09 12:46:26;;;;;;;20.73;13.10;;;15.30;45.50;;;;;;6156280;23;20037;-84
2022/03/09 12:49:00;;;;;;;19.63;13.35;;;15.30;47.30;;;;;;6156375;23;20409;-84
2022/03/09 12:51:26;;;;;;;19.15;13.25;;;15.40;46.80;;;;;;6131887;23;20032;-84
2022/03/09 12:53:52;;;;;;;20.20;12.90;;;15.50;46.10;;;;;;6131986;23;20426;-84
2022/03/09 12:56:20;;;;;;;21.27;13.52;;;15.60;46.20;;;;;;6109538;23;20009;-90
2022/03/09 12:58:46;;;;;;;21.90;14.32;;;15.70;45.80;;;;;;6133826;23;20010;-90
2022/03/09 13:01:13;;;;;;;24.15;14.30;;;15.70;45.70;;;;;;6158346;23;20006;-90
2022/03/09 13:03:43;;;;;;;27.50;14.15;;;15.90;45.10;;;;;;6109166;23;20092;-90
2022/03/09 13:06:24;;;;;;;21.08;13.77;;;15.90;43.00;;;;;;6158229;23;19997;-88
2022/03/09 13:08:50;;;;;;;;;;;16.00;43.80;;;;;;6158683;23;20012;-91
2022/03/09 13:11:45;;;;;;;22.25;14.50;;;16.00;42.90;;;;;;6133572;23;20247;-90
2022/03/09 13:14:18;;;;;;;22.60;15.32;;;16.00;44.00;;;;;;6031385;23;20011;-90
2022/03/09 13:16:45;;;;;;;21.27;14.75;;;16.00;43.90;;;;;;6156735;23;20033;-84
2022/03/09 13:19:12;;;;;;;24.88;14.35;;;16.00;43.90;;;;;;6155918;23;20028;-84
2022/03/09 13:21:39;;;;;;;21.05;14.48;;;16.10;42.50;;;;;;6131578;23;20092;-85
2022/03/09 13:24:25;;;;;;;23.30;14.18;;;16.10;43.50;;;;;;6158001;23;20017;-91
2022/03/09 13:26:51;;;;;;;21.38;14.43;;;16.10;44.80;;;;;;6157949;23;20052;-90
2022/03/09 13:29:20;;;;;;;23.17;15.00;;;16.20;44.30;;;;;;6133252;23;20005;-90
2022/03/09 13:31:57;;;;;;;21.65;14.18;;;16.20;43.60;;;;;;6133209;23;20072;-85
2022/03/09 13:34:25;;;;;;;25.30;14.63;;;16.20;43.90;;;;;;6109644;23;20365;-85
2022/03/09 13:37:05;;;;;;;23.38;15.30;;;16.30;45.20;;;;;;6155645;23;20012;-85
2022/03/09 13:39:41;;;;;;;23.88;15.18;;;16.30;43.80;;;;;;6157092;23;20006;-84
2022/03/09 13:42:12;;;;;;;24.70;14.77;;;16.30;44.80;;;;;;6156092;23;19998;-85
2022/03/09 13:44:38;;;;;;;22.15;14.80;;;16.40;44.50;;;;;;6155844;23;20088;-85
2022/03/09 13:47:06;;;;;;;22.63;14.55;;;16.40;45.40;;;;;;6107027;23;20005;-85
2022/03/09 13:49:50;;;;;;;22.65;15.80;;;16.50;45.40;;;;;;6155904;23;20085;-85
2022/03/09 13:52:35;;;;;;;21.90;14.77;;;16.60;43.70;;;;;;6156934;23;20006;-89
2022/03/09 13:55:03;;;;;;;23.05;15.75;;;16.60;44.50;;;;;;6156776;23;20010;-90
2022/03/09 13:57:35;;;;;;;21.52;14.82;;;16.60;43.40;;;;;;6155843;23;20013;-85
2022/03/09 14:00:04;;;;;;;23.30;14.38;;;16.60;43.40;;;;;;6156013;23;20333;-85
2022/03/09 14:02:30;;;;;;;22.20;14.93;;;16.70;44.60;;;;;;6155499;23;20333;-85
2022/03/09 14:04:55;;;;;;;22.40;15.32;;;16.80;44.90;;;;;;6155338;23;20006;-85
2022/03/09 14:07:22;;;;;;;22.50;14.88;;;16.80;43.50;;;;;;6106336;23;20001;-85